sensor_id;sensor_type;location;lat;lon;timestamp;temperature;humidity
30594;DHT22;33199;47.590;8.300;2022-12-07T00:02:21;9.80;67.40
30594;DHT22;33199;47.590;8.300;2022-12-07T00:04:48;9.80;67.40
30594;DHT22;33199;47.590;8.300;2022-12-07T00:07:14;9.80;67.40
30594;DHT22;33199;47.590;8.300;2022-12-07T00:09:39;9.80;67.40
30594;DHT22;33199;47.590;8.300;2022-12-07T00:12:06;9.80;67.40
30594;DHT22;33199;47.590;8.300;2022-12-07T00:14:32;9.80;67.40
30594;DHT22;33199;47.590;8.300;2022-12-07T00:16:57;9.80;67.40
30594;DHT22;33199;47.590;8.300;2022-12-07T00:19:23;9.80;67.50
30594;DHT22;33199;47.590;8.300;2022-12-07T00:21:48;9.80;67.50
30594;DHT22;33199;47.590;8.300;2022-12-07T00:24:14;9.80;67.50
30594;DHT22;33199;47.590;8.300;2022-12-07T00:26:40;9.80;67.50
30594;DHT22;33199;47.590;8.300;2022-12-07T00:29:09;9.80;67.50
30594;DHT22;33199;47.590;8.300;2022-12-07T00:31:37;9.80;67.60
30594;DHT22;33199;47.590;8.300;2022-12-07T00:34:04;9.80;67.60
30594;DHT22;33199;47.590;8.300;2022-12-07T00:36:29;9.80;67.60
30594;DHT22;33199;47.590;8.300;2022-12-07T00:38:57;9.80;67.60
30594;DHT22;33199;47.590;8.300;2022-12-07T00:41:23;9.80;67.60
30594;DHT22;33199;47.590;8.300;2022-12-07T00:43:49;9.80;67.50
30594;DHT22;33199;47.590;8.300;2022-12-07T00:46:15;9.80;67.60
30594;DHT22;33199;47.590;8.300;2022-12-07T00:48:41;9.80;67.60
30594;DHT22;33199;47.590;8.300;2022-12-07T00:51:07;9.80;67.60
30594;DHT22;33199;47.590;8.300;2022-12-07T00:53:36;9.80;67.60
30594;DHT22;33199;47.590;8.300;2022-12-07T00:56:05;9.80;67.60
30594;DHT22;33199;47.590;8.300;2022-12-07T00:58:31;9.80;67.70
30594;DHT22;33199;47.590;8.300;2022-12-07T01:00:56;9.80;67.70
30594;DHT22;33199;47.590;8.300;2022-12-07T01:03:24;9.80;67.70
30594;DHT22;33199;47.590;8.300;2022-12-07T01:05:51;9.80;67.70
30594;DHT22;33199;47.590;8.300;2022-12-07T01:08:16;9.80;67.70
30594;DHT22;33199;47.590;8.300;2022-12-07T01:10:42;9.80;67.70
30594;DHT22;33199;47.590;8.300;2022-12-07T01:13:07;9.80;67.70
30594;DHT22;33199;47.590;8.300;2022-12-07T01:15:33;9.80;67.70
30594;DHT22;33199;47.590;8.300;2022-12-07T01:17:58;9.80;67.70
30594;DHT22;33199;47.590;8.300;2022-12-07T01:20:24;9.80;67.60
30594;DHT22;33199;47.590;8.300;2022-12-07T01:22:49;9.80;67.60
30594;DHT22;33199;47.590;8.300;2022-12-07T01:25:15;9.80;67.70
30594;DHT22;33199;47.590;8.300;2022-12-07T01:27:40;9.80;67.80
30594;DHT22;33199;47.590;8.300;2022-12-07T01:30:06;9.80;67.80
30594;DHT22;33199;47.590;8.300;2022-12-07T01:32:32;9.80;67.80
30594;DHT22;33199;47.590;8.300;2022-12-07T01:34:57;9.70;67.80
30594;DHT22;33199;47.590;8.300;2022-12-07T01:37:23;9.80;67.80
30594;DHT22;33199;47.590;8.300;2022-12-07T01:39:49;9.80;67.70
30594;DHT22;33199;47.590;8.300;2022-12-07T01:42:14;9.80;67.70
30594;DHT22;33199;47.590;8.300;2022-12-07T01:47:24;9.80;67.70
30594;DHT22;33199;47.590;8.300;2022-12-07T01:49:50;9.80;67.70
30594;DHT22;33199;47.590;8.300;2022-12-07T01:54:41;9.70;67.80
30594;DHT22;33199;47.590;8.300;2022-12-07T01:57:07;9.70;67.70
30594;DHT22;33199;47.590;8.300;2022-12-07T01:59:33;9.80;67.80
30594;DHT22;33199;47.590;8.300;2022-12-07T02:01:58;9.70;67.70
30594;DHT22;33199;47.590;8.300;2022-12-07T02:04:24;9.70;67.80
30594;DHT22;33199;47.590;8.300;2022-12-07T02:06:50;9.70;67.80
30594;DHT22;33199;47.590;8.300;2022-12-07T02:09:16;9.80;67.80
30594;DHT22;33199;47.590;8.300;2022-12-07T02:11:43;9.70;67.70
30594;DHT22;33199;47.590;8.300;2022-12-07T02:14:08;9.70;67.70
30594;DHT22;33199;47.590;8.300;2022-12-07T02:21:58;9.80;68.60
30594;DHT22;33199;47.590;8.300;2022-12-07T02:27:17;9.70;67.80
30594;DHT22;33199;47.590;8.300;2022-12-07T02:35:41;9.70;67.80
30594;DHT22;33199;47.590;8.300;2022-12-07T02:42:36;9.70;67.80
30594;DHT22;33199;47.590;8.300;2022-12-07T02:45:03;9.70;67.80
30594;DHT22;33199;47.590;8.300;2022-12-07T02:47:29;9.70;67.80
30594;DHT22;33199;47.590;8.300;2022-12-07T02:49:57;9.70;67.80
30594;DHT22;33199;47.590;8.300;2022-12-07T02:52:22;9.70;67.80
30594;DHT22;33199;47.590;8.300;2022-12-07T02:54:48;9.70;67.70
30594;DHT22;33199;47.590;8.300;2022-12-07T03:04:43;9.70;67.80
30594;DHT22;33199;47.590;8.300;2022-12-07T03:09:38;9.70;67.80
30594;DHT22;33199;47.590;8.300;2022-12-07T03:12:12;9.70;67.90
30594;DHT22;33199;47.590;8.300;2022-12-07T03:14:45;9.70;67.90
30594;DHT22;33199;47.590;8.300;2022-12-07T03:17:16;9.70;67.90
30594;DHT22;33199;47.590;8.300;2022-12-07T03:19:43;9.70;67.90
30594;DHT22;33199;47.590;8.300;2022-12-07T03:22:10;9.70;67.90
30594;DHT22;33199;47.590;8.300;2022-12-07T03:24:38;9.70;68.00
30594;DHT22;33199;47.590;8.300;2022-12-07T03:27:06;9.70;67.90
30594;DHT22;33199;47.590;8.300;2022-12-07T03:29:36;9.70;68.00
30594;DHT22;33199;47.590;8.300;2022-12-07T03:32:08;9.70;67.90
30594;DHT22;33199;47.590;8.300;2022-12-07T03:34:39;9.60;67.80
30594;DHT22;33199;47.590;8.300;2022-12-07T03:37:12;9.70;68.00
30594;DHT22;33199;47.590;8.300;2022-12-07T03:42:24;9.70;67.90
30594;DHT22;33199;47.590;8.300;2022-12-07T03:44:50;9.70;67.90
30594;DHT22;33199;47.590;8.300;2022-12-07T03:49:55;9.70;68.00
30594;DHT22;33199;47.590;8.300;2022-12-07T03:52:24;9.70;68.00
30594;DHT22;33199;47.590;8.300;2022-12-07T03:57:19;9.70;68.00
30594;DHT22;33199;47.590;8.300;2022-12-07T03:59:46;9.70;68.00
30594;DHT22;33199;47.590;8.300;2022-12-07T04:02:12;9.70;68.00
30594;DHT22;33199;47.590;8.300;2022-12-07T04:04:38;9.70;68.00
30594;DHT22;33199;47.590;8.300;2022-12-07T04:07:04;9.70;67.90
30594;DHT22;33199;47.590;8.300;2022-12-07T04:09:29;9.70;67.90
30594;DHT22;33199;47.590;8.300;2022-12-07T04:11:56;9.70;67.90
30594;DHT22;33199;47.590;8.300;2022-12-07T04:14:22;9.60;67.90
30594;DHT22;33199;47.590;8.300;2022-12-07T04:16:48;9.70;68.00
30594;DHT22;33199;47.590;8.300;2022-12-07T04:19:14;9.70;68.80
30594;DHT22;33199;47.590;8.300;2022-12-07T04:21:40;9.60;68.00
30594;DHT22;33199;47.590;8.300;2022-12-07T04:24:05;9.60;68.00
30594;DHT22;33199;47.590;8.300;2022-12-07T04:26:31;9.60;68.00
30594;DHT22;33199;47.590;8.300;2022-12-07T04:28:56;9.70;68.00
30594;DHT22;33199;47.590;8.300;2022-12-07T04:31:22;9.70;68.00
30594;DHT22;33199;47.590;8.300;2022-12-07T04:33:47;9.70;68.00
30594;DHT22;33199;47.590;8.300;2022-12-07T04:36:13;9.60;68.00
30594;DHT22;33199;47.590;8.300;2022-12-07T04:38:38;9.70;68.10
30594;DHT22;33199;47.590;8.300;2022-12-07T04:41:07;9.70;68.00
30594;DHT22;33199;47.590;8.300;2022-12-07T04:43:33;9.60;68.00
30594;DHT22;33199;47.590;8.300;2022-12-07T04:45:58;9.60;68.00
30594;DHT22;33199;47.590;8.300;2022-12-07T04:48:24;9.60;68.00
30594;DHT22;33199;47.590;8.300;2022-12-07T04:50:49;9.60;68.00
30594;DHT22;33199;47.590;8.300;2022-12-07T04:53:15;9.60;68.00
30594;DHT22;33199;47.590;8.300;2022-12-07T04:55:41;9.70;68.10
30594;DHT22;33199;47.590;8.300;2022-12-07T04:58:06;9.60;68.00
30594;DHT22;33199;47.590;8.300;2022-12-07T05:00:32;9.60;68.00
30594;DHT22;33199;47.590;8.300;2022-12-07T05:02:57;9.60;68.00
30594;DHT22;33199;47.590;8.300;2022-12-07T05:05:22;9.60;68.10
30594;DHT22;33199;47.590;8.300;2022-12-07T05:07:49;9.60;68.10
30594;DHT22;33199;47.590;8.300;2022-12-07T05:10:15;9.60;68.00
30594;DHT22;33199;47.590;8.300;2022-12-07T05:12:42;9.60;68.00
30594;DHT22;33199;47.590;8.300;2022-12-07T05:15:07;9.60;68.10
30594;DHT22;33199;47.590;8.300;2022-12-07T05:17:33;9.60;68.10
30594;DHT22;33199;47.590;8.300;2022-12-07T05:19:58;9.60;68.10
30594;DHT22;33199;47.590;8.300;2022-12-07T05:22:24;9.60;68.10
30594;DHT22;33199;47.590;8.300;2022-12-07T05:24:56;9.60;68.20
30594;DHT22;33199;47.590;8.300;2022-12-07T05:27:21;9.60;68.10
30594;DHT22;33199;47.590;8.300;2022-12-07T05:29:47;9.60;68.10
30594;DHT22;33199;47.590;8.300;2022-12-07T05:32:12;9.60;68.10
30594;DHT22;33199;47.590;8.300;2022-12-07T05:34:38;9.60;68.10
30594;DHT22;33199;47.590;8.300;2022-12-07T05:37:03;9.60;68.10
30594;DHT22;33199;47.590;8.300;2022-12-07T05:39:29;9.60;68.10
30594;DHT22;33199;47.590;8.300;2022-12-07T05:41:54;9.60;68.00
30594;DHT22;33199;47.590;8.300;2022-12-07T05:44:42;9.70;68.20
30594;DHT22;33199;47.590;8.300;2022-12-07T05:47:08;9.60;68.10
30594;DHT22;33199;47.590;8.300;2022-12-07T05:49:33;9.60;68.10
30594;DHT22;33199;47.590;8.300;2022-12-07T05:51:59;9.60;68.10
30594;DHT22;33199;47.590;8.300;2022-12-07T05:54:24;9.60;68.10
30594;DHT22;33199;47.590;8.300;2022-12-07T05:56:50;9.60;68.20
30594;DHT22;33199;47.590;8.300;2022-12-07T05:59:16;9.60;68.20
30594;DHT22;33199;47.590;8.300;2022-12-07T06:01:56;9.60;68.20
30594;DHT22;33199;47.590;8.300;2022-12-07T06:04:22;9.60;68.20
30594;DHT22;33199;47.590;8.300;2022-12-07T06:06:48;9.60;68.20
30594;DHT22;33199;47.590;8.300;2022-12-07T06:09:13;9.60;68.20
30594;DHT22;33199;47.590;8.300;2022-12-07T06:11:39;9.60;68.20
30594;DHT22;33199;47.590;8.300;2022-12-07T06:14:24;9.60;68.20
30594;DHT22;33199;47.590;8.300;2022-12-07T06:16:49;9.60;68.20
30594;DHT22;33199;47.590;8.300;2022-12-07T06:19:15;9.60;68.30
30594;DHT22;33199;47.590;8.300;2022-12-07T06:21:40;9.60;68.20
30594;DHT22;33199;47.590;8.300;2022-12-07T06:24:06;9.60;68.10
30594;DHT22;33199;47.590;8.300;2022-12-07T06:26:32;9.60;68.20
30594;DHT22;33199;47.590;8.300;2022-12-07T06:28:57;9.60;68.20
30594;DHT22;33199;47.590;8.300;2022-12-07T06:31:23;9.60;68.20
30594;DHT22;33199;47.590;8.300;2022-12-07T06:33:48;9.60;68.20
30594;DHT22;33199;47.590;8.300;2022-12-07T06:36:13;9.60;68.20
30594;DHT22;33199;47.590;8.300;2022-12-07T06:38:39;9.50;65.50
30594;DHT22;33199;47.590;8.300;2022-12-07T06:41:05;9.30;65.40
30594;DHT22;33199;47.590;8.300;2022-12-07T06:43:30;9.30;66.50
30594;DHT22;33199;47.590;8.300;2022-12-07T06:45:56;9.30;67.30
30594;DHT22;33199;47.590;8.300;2022-12-07T06:48:21;9.30;67.60
30594;DHT22;33199;47.590;8.300;2022-12-07T06:50:47;9.30;67.80
30594;DHT22;33199;47.590;8.300;2022-12-07T06:53:13;9.30;67.60
30594;DHT22;33199;47.590;8.300;2022-12-07T06:55:38;9.30;67.50
30594;DHT22;33199;47.590;8.300;2022-12-07T06:58:03;9.30;67.60
30594;DHT22;33199;47.590;8.300;2022-12-07T07:00:29;9.40;67.60
30594;DHT22;33199;47.590;8.300;2022-12-07T07:02:55;9.40;67.50
30594;DHT22;33199;47.590;8.300;2022-12-07T07:05:20;9.40;67.50
30594;DHT22;33199;47.590;8.300;2022-12-07T07:07:48;9.40;67.50
30594;DHT22;33199;47.590;8.300;2022-12-07T07:10:13;9.40;67.50
30594;DHT22;33199;47.590;8.300;2022-12-07T07:12:39;9.40;67.50
30594;DHT22;33199;47.590;8.300;2022-12-07T07:15:04;9.40;67.50
30594;DHT22;33199;47.590;8.300;2022-12-07T07:17:30;9.50;67.60
30594;DHT22;33199;47.590;8.300;2022-12-07T07:19:55;9.50;67.60
30594;DHT22;33199;47.590;8.300;2022-12-07T07:22:21;9.50;67.50
30594;DHT22;33199;47.590;8.300;2022-12-07T07:24:48;9.50;67.50
30594;DHT22;33199;47.590;8.300;2022-12-07T07:27:13;9.50;67.60
30594;DHT22;33199;47.590;8.300;2022-12-07T07:29:39;9.50;67.60
30594;DHT22;33199;47.590;8.300;2022-12-07T07:32:04;9.50;67.60
30594;DHT22;33199;47.590;8.300;2022-12-07T07:34:30;9.50;67.60
30594;DHT22;33199;47.590;8.300;2022-12-07T07:36:55;9.50;67.60
30594;DHT22;33199;47.590;8.300;2022-12-07T07:39:21;9.50;67.60
30594;DHT22;33199;47.590;8.300;2022-12-07T07:41:46;9.50;67.60
30594;DHT22;33199;47.590;8.300;2022-12-07T07:44:12;9.50;67.60
30594;DHT22;33199;47.590;8.300;2022-12-07T07:46:37;9.50;67.60
30594;DHT22;33199;47.590;8.300;2022-12-07T07:49:03;9.50;67.60
30594;DHT22;33199;47.590;8.300;2022-12-07T07:51:28;9.50;67.60
30594;DHT22;33199;47.590;8.300;2022-12-07T07:53:54;9.50;67.60
30594;DHT22;33199;47.590;8.300;2022-12-07T07:56:19;9.50;67.70
30594;DHT22;33199;47.590;8.300;2022-12-07T07:58:45;9.50;67.70
30594;DHT22;33199;47.590;8.300;2022-12-07T08:01:10;9.50;67.70
30594;DHT22;33199;47.590;8.300;2022-12-07T08:03:35;9.50;67.70
30594;DHT22;33199;47.590;8.300;2022-12-07T08:06:02;9.50;67.70
30594;DHT22;33199;47.590;8.300;2022-12-07T08:08:27;9.50;67.70
30594;DHT22;33199;47.590;8.300;2022-12-07T08:10:53;9.50;67.60
30594;DHT22;33199;47.590;8.300;2022-12-07T08:13:18;9.50;67.70
30594;DHT22;33199;47.590;8.300;2022-12-07T08:15:45;9.50;67.70
30594;DHT22;33199;47.590;8.300;2022-12-07T08:18:11;9.50;67.70
30594;DHT22;33199;47.590;8.300;2022-12-07T08:20:37;9.50;67.80
30594;DHT22;33199;47.590;8.300;2022-12-07T08:23:03;9.50;67.80
30594;DHT22;33199;47.590;8.300;2022-12-07T08:25:29;9.50;67.80
30594;DHT22;33199;47.590;8.300;2022-12-07T08:27:55;9.50;67.80
30594;DHT22;33199;47.590;8.300;2022-12-07T08:30:20;9.40;65.90
30594;DHT22;33199;47.590;8.300;2022-12-07T08:32:46;9.30;65.30
30594;DHT22;33199;47.590;8.300;2022-12-07T08:35:12;9.00;65.40
30594;DHT22;33199;47.590;8.300;2022-12-07T08:37:38;8.80;65.90
30594;DHT22;33199;47.590;8.300;2022-12-07T08:40:04;8.60;66.70
30594;DHT22;33199;47.590;8.300;2022-12-07T08:42:30;8.50;67.30
30594;DHT22;33199;47.590;8.300;2022-12-07T08:45:13;8.50;68.10
30594;DHT22;33199;47.590;8.300;2022-12-07T08:47:40;8.40;68.20
30594;DHT22;33199;47.590;8.300;2022-12-07T08:50:07;8.50;68.30
30594;DHT22;33199;47.590;8.300;2022-12-07T08:52:33;8.60;68.50
30594;DHT22;33199;47.590;8.300;2022-12-07T08:55:00;8.60;68.70
30594;DHT22;33199;47.590;8.300;2022-12-07T08:57:26;8.70;68.60
30594;DHT22;33199;47.590;8.300;2022-12-07T08:59:52;8.80;68.40
30594;DHT22;33199;47.590;8.300;2022-12-07T09:02:17;8.80;68.20
30594;DHT22;33199;47.590;8.300;2022-12-07T09:04:43;8.90;68.10
30594;DHT22;33199;47.590;8.300;2022-12-07T09:07:08;8.90;67.90
30594;DHT22;33199;47.590;8.300;2022-12-07T09:09:34;8.90;67.80
30594;DHT22;33199;47.590;8.300;2022-12-07T09:11:59;8.90;67.80
30594;DHT22;33199;47.590;8.300;2022-12-07T09:14:25;9.00;67.70
30594;DHT22;33199;47.590;8.300;2022-12-07T09:16:50;9.00;67.70
30594;DHT22;33199;47.590;8.300;2022-12-07T09:19:16;9.00;67.60
30594;DHT22;33199;47.590;8.300;2022-12-07T09:21:42;9.10;67.50
30594;DHT22;33199;47.590;8.300;2022-12-07T09:24:07;9.10;67.60
30594;DHT22;33199;47.590;8.300;2022-12-07T09:26:34;9.10;67.50
30594;DHT22;33199;47.590;8.300;2022-12-07T09:29:01;9.10;67.50
30594;DHT22;33199;47.590;8.300;2022-12-07T09:31:27;9.10;67.50
30594;DHT22;33199;47.590;8.300;2022-12-07T09:33:59;9.10;67.50
30594;DHT22;33199;47.590;8.300;2022-12-07T09:36:25;9.10;67.40
30594;DHT22;33199;47.590;8.300;2022-12-07T09:38:51;9.10;67.50
30594;DHT22;33199;47.590;8.300;2022-12-07T09:41:16;9.10;67.50
30594;DHT22;33199;47.590;8.300;2022-12-07T09:43:42;9.20;67.50
30594;DHT22;33199;47.590;8.300;2022-12-07T09:46:09;9.20;67.50
30594;DHT22;33199;47.590;8.300;2022-12-07T09:48:36;9.10;67.40
30594;DHT22;33199;47.590;8.300;2022-12-07T09:51:13;9.20;67.50
30594;DHT22;33199;47.590;8.300;2022-12-07T09:53:39;9.20;67.50
30594;DHT22;33199;47.590;8.300;2022-12-07T09:56:05;9.20;67.50
30594;DHT22;33199;47.590;8.300;2022-12-07T09:58:31;9.20;67.50
30594;DHT22;33199;47.590;8.300;2022-12-07T10:00:58;9.20;67.50
30594;DHT22;33199;47.590;8.300;2022-12-07T10:03:28;9.20;67.50
30594;DHT22;33199;47.590;8.300;2022-12-07T10:05:54;9.20;67.40
30594;DHT22;33199;47.590;8.300;2022-12-07T10:08:19;9.20;67.50
30594;DHT22;33199;47.590;8.300;2022-12-07T10:10:47;9.20;67.50
30594;DHT22;33199;47.590;8.300;2022-12-07T10:13:14;9.20;67.50
30594;DHT22;33199;47.590;8.300;2022-12-07T10:18:13;9.30;67.60
30594;DHT22;33199;47.590;8.300;2022-12-07T10:20:41;9.30;67.60
30594;DHT22;33199;47.590;8.300;2022-12-07T10:23:13;9.20;67.60
30594;DHT22;33199;47.590;8.300;2022-12-07T10:25:39;9.20;67.50
30594;DHT22;33199;47.590;8.300;2022-12-07T10:28:16;9.30;67.60
30594;DHT22;33199;47.590;8.300;2022-12-07T10:30:56;9.30;67.70
30594;DHT22;33199;47.590;8.300;2022-12-07T10:35:56;9.30;67.60
30594;DHT22;33199;47.590;8.300;2022-12-07T10:38:22;9.30;67.70
30594;DHT22;33199;47.590;8.300;2022-12-07T10:40:48;9.30;67.60
30594;DHT22;33199;47.590;8.300;2022-12-07T10:43:27;9.30;67.60
30594;DHT22;33199;47.590;8.300;2022-12-07T10:48:50;9.30;67.60
30594;DHT22;33199;47.590;8.300;2022-12-07T10:51:22;9.30;67.60
30594;DHT22;33199;47.590;8.300;2022-12-07T10:53:59;9.30;67.60
30594;DHT22;33199;47.590;8.300;2022-12-07T10:59:16;9.30;67.60
30594;DHT22;33199;47.590;8.300;2022-12-07T11:04:33;9.30;67.70
30594;DHT22;33199;47.590;8.300;2022-12-07T11:07:09;9.30;67.70
30594;DHT22;33199;47.590;8.300;2022-12-07T11:09:43;9.30;67.70
30594;DHT22;33199;47.590;8.300;2022-12-07T11:14:56;9.30;67.70
30594;DHT22;33199;47.590;8.300;2022-12-07T11:22:29;9.30;67.60
30594;DHT22;33199;47.590;8.300;2022-12-07T11:27:55;9.30;67.60
30594;DHT22;33199;47.590;8.300;2022-12-07T11:30:28;9.30;67.60
30594;DHT22;33199;47.590;8.300;2022-12-07T11:35:36;9.30;67.60
30594;DHT22;33199;47.590;8.300;2022-12-07T11:40:53;9.30;67.70
30594;DHT22;33199;47.590;8.300;2022-12-07T11:43:25;9.30;67.70
30594;DHT22;33199;47.590;8.300;2022-12-07T11:45:59;9.30;67.70
30594;DHT22;33199;47.590;8.300;2022-12-07T11:48:30;9.30;67.60
30594;DHT22;33199;47.590;8.300;2022-12-07T11:50:58;9.30;67.70
30594;DHT22;33199;47.590;8.300;2022-12-07T11:53:25;9.30;67.70
30594;DHT22;33199;47.590;8.300;2022-12-07T12:00:47;9.40;67.70
30594;DHT22;33199;47.590;8.300;2022-12-07T12:03:15;9.30;67.60
30594;DHT22;33199;47.590;8.300;2022-12-07T12:05:42;9.30;67.70
30594;DHT22;33199;47.590;8.300;2022-12-07T12:13:19;9.40;67.70
30594;DHT22;33199;47.590;8.300;2022-12-07T12:20:55;9.40;67.70
30594;DHT22;33199;47.590;8.300;2022-12-07T12:23:33;9.30;67.60
30594;DHT22;33199;47.590;8.300;2022-12-07T12:26:01;9.30;67.60
30594;DHT22;33199;47.590;8.300;2022-12-07T12:28:29;9.40;67.70
30594;DHT22;33199;47.590;8.300;2022-12-07T12:31:13;9.40;67.70
30594;DHT22;33199;47.590;8.300;2022-12-07T12:33:58;9.40;67.70
30594;DHT22;33199;47.590;8.300;2022-12-07T12:36:25;9.40;67.60
30594;DHT22;33199;47.590;8.300;2022-12-07T12:44:00;9.40;67.50
30594;DHT22;33199;47.590;8.300;2022-12-07T12:51:39;9.40;67.50
30594;DHT22;33199;47.590;8.300;2022-12-07T12:54:08;9.40;67.50
30594;DHT22;33199;47.590;8.300;2022-12-07T13:01:47;9.40;67.50
30594;DHT22;33199;47.590;8.300;2022-12-07T13:04:27;9.40;67.50
30594;DHT22;33199;47.590;8.300;2022-12-07T13:06:53;9.40;68.00
30594;DHT22;33199;47.590;8.300;2022-12-07T13:09:32;9.40;67.50
30594;DHT22;33199;47.590;8.300;2022-12-07T13:12:00;9.40;67.50
30594;DHT22;33199;47.590;8.300;2022-12-07T13:19:55;9.40;67.50
30594;DHT22;33199;47.590;8.300;2022-12-07T13:27:40;9.40;67.50
30594;DHT22;33199;47.590;8.300;2022-12-07T13:30:16;9.40;67.50
30594;DHT22;33199;47.590;8.300;2022-12-07T13:32:42;9.40;67.50
30594;DHT22;33199;47.590;8.300;2022-12-07T13:37:52;9.40;67.50
30594;DHT22;33199;47.590;8.300;2022-12-07T13:40:18;9.40;67.40
30594;DHT22;33199;47.590;8.300;2022-12-07T13:42:44;9.50;67.50
30594;DHT22;33199;47.590;8.300;2022-12-07T13:48:14;9.40;67.40
30594;DHT22;33199;47.590;8.300;2022-12-07T13:50:41;9.40;67.50
30594;DHT22;33199;47.590;8.300;2022-12-07T13:53:07;9.50;67.40
30594;DHT22;33199;47.590;8.300;2022-12-07T13:55:36;9.50;67.50
30594;DHT22;33199;47.590;8.300;2022-12-07T13:58:09;9.50;67.50
30594;DHT22;33199;47.590;8.300;2022-12-07T14:00:34;9.50;67.40
30594;DHT22;33199;47.590;8.300;2022-12-07T14:03:04;9.50;67.50
30594;DHT22;33199;47.590;8.300;2022-12-07T14:05:46;9.50;67.40
30594;DHT22;33199;47.590;8.300;2022-12-07T14:13:17;9.40;67.40
30594;DHT22;33199;47.590;8.300;2022-12-07T14:15:49;9.50;67.50
30594;DHT22;33199;47.590;8.300;2022-12-07T14:18:25;9.40;67.40
30594;DHT22;33199;47.590;8.300;2022-12-07T14:20:52;9.50;67.50
30594;DHT22;33199;47.590;8.300;2022-12-07T14:23:27;9.50;67.50
30594;DHT22;33199;47.590;8.300;2022-12-07T14:25:52;9.50;67.40
30594;DHT22;33199;47.590;8.300;2022-12-07T14:28:28;9.50;67.50
30594;DHT22;33199;47.590;8.300;2022-12-07T14:30:54;9.50;67.50
30594;DHT22;33199;47.590;8.300;2022-12-07T14:33:19;9.50;67.50
30594;DHT22;33199;47.590;8.300;2022-12-07T14:35:46;9.50;67.50
30594;DHT22;33199;47.590;8.300;2022-12-07T14:38:11;9.50;67.50
30594;DHT22;33199;47.590;8.300;2022-12-07T14:40:37;9.50;67.50
30594;DHT22;33199;47.590;8.300;2022-12-07T14:43:04;9.50;67.50
30594;DHT22;33199;47.590;8.300;2022-12-07T14:45:30;9.50;67.50
30594;DHT22;33199;47.590;8.300;2022-12-07T14:47:56;9.50;67.40
30594;DHT22;33199;47.590;8.300;2022-12-07T14:50:21;9.50;67.50
30594;DHT22;33199;47.590;8.300;2022-12-07T14:52:51;9.50;67.50
30594;DHT22;33199;47.590;8.300;2022-12-07T14:55:23;9.50;67.50
30594;DHT22;33199;47.590;8.300;2022-12-07T14:57:49;9.50;67.50
30594;DHT22;33199;47.590;8.300;2022-12-07T15:00:15;9.50;67.60
30594;DHT22;33199;47.590;8.300;2022-12-07T15:02:40;9.40;67.50
30594;DHT22;33199;47.590;8.300;2022-12-07T15:05:06;9.50;67.60
30594;DHT22;33199;47.590;8.300;2022-12-07T15:07:31;9.50;67.60
30594;DHT22;33199;47.590;8.300;2022-12-07T15:09:57;9.50;67.60
30594;DHT22;33199;47.590;8.300;2022-12-07T15:12:22;9.50;67.60
30594;DHT22;33199;47.590;8.300;2022-12-07T15:14:50;9.50;67.60
30594;DHT22;33199;47.590;8.300;2022-12-07T15:17:15;9.40;67.50
30594;DHT22;33199;47.590;8.300;2022-12-07T15:19:41;9.50;67.70
30594;DHT22;33199;47.590;8.300;2022-12-07T15:22:07;9.40;67.60
30594;DHT22;33199;47.590;8.300;2022-12-07T15:24:33;9.40;67.50
30594;DHT22;33199;47.590;8.300;2022-12-07T15:26:59;9.40;67.60
30594;DHT22;33199;47.590;8.300;2022-12-07T15:29:24;9.50;67.60
30594;DHT22;33199;47.590;8.300;2022-12-07T15:31:50;9.50;67.70
30594;DHT22;33199;47.590;8.300;2022-12-07T15:34:15;9.50;67.70
30594;DHT22;33199;47.590;8.300;2022-12-07T15:36:41;9.50;67.70
30594;DHT22;33199;47.590;8.300;2022-12-07T15:39:06;9.50;67.70
30594;DHT22;33199;47.590;8.300;2022-12-07T15:41:33;9.50;67.70
30594;DHT22;33199;47.590;8.300;2022-12-07T15:43:58;9.40;67.60
30594;DHT22;33199;47.590;8.300;2022-12-07T15:46:42;9.50;67.70
30594;DHT22;33199;47.590;8.300;2022-12-07T15:49:10;9.50;67.70
30594;DHT22;33199;47.590;8.300;2022-12-07T15:51:35;9.50;67.70
30594;DHT22;33199;47.590;8.300;2022-12-07T15:54:01;9.40;67.60
30594;DHT22;33199;47.590;8.300;2022-12-07T15:56:26;9.50;67.70
30594;DHT22;33199;47.590;8.300;2022-12-07T15:58:52;9.50;67.70
30594;DHT22;33199;47.590;8.300;2022-12-07T16:01:18;9.50;67.70
30594;DHT22;33199;47.590;8.300;2022-12-07T16:03:44;9.50;67.70
30594;DHT22;33199;47.590;8.300;2022-12-07T16:06:10;9.50;67.70
30594;DHT22;33199;47.590;8.300;2022-12-07T16:08:36;9.40;67.70
30594;DHT22;33199;47.590;8.300;2022-12-07T16:11:07;9.40;67.70
30594;DHT22;33199;47.590;8.300;2022-12-07T16:13:33;9.50;67.80
30594;DHT22;33199;47.590;8.300;2022-12-07T16:16:02;9.50;67.70
30594;DHT22;33199;47.590;8.300;2022-12-07T16:18:28;9.40;67.70
30594;DHT22;33199;47.590;8.300;2022-12-07T16:20:53;9.50;67.70
30594;DHT22;33199;47.590;8.300;2022-12-07T16:23:19;9.40;67.70
30594;DHT22;33199;47.590;8.300;2022-12-07T16:25:44;9.50;67.70
30594;DHT22;33199;47.590;8.300;2022-12-07T16:28:09;9.50;67.70
30594;DHT22;33199;47.590;8.300;2022-12-07T16:30:35;9.40;67.70
30594;DHT22;33199;47.590;8.300;2022-12-07T16:33:00;9.40;67.70
30594;DHT22;33199;47.590;8.300;2022-12-07T16:35:26;9.40;67.60
30594;DHT22;33199;47.590;8.300;2022-12-07T16:37:52;9.50;67.70
30594;DHT22;33199;47.590;8.300;2022-12-07T16:40:17;9.50;67.70
30594;DHT22;33199;47.590;8.300;2022-12-07T16:42:43;9.40;67.70
30594;DHT22;33199;47.590;8.300;2022-12-07T16:45:08;9.50;67.70
30594;DHT22;33199;47.590;8.300;2022-12-07T16:47:36;9.50;67.60
30594;DHT22;33199;47.590;8.300;2022-12-07T16:50:02;9.40;67.60
30594;DHT22;33199;47.590;8.300;2022-12-07T16:52:27;9.50;67.70
30594;DHT22;33199;47.590;8.300;2022-12-07T16:54:53;9.50;67.60
30594;DHT22;33199;47.590;8.300;2022-12-07T16:57:18;9.50;67.70
30594;DHT22;33199;47.590;8.300;2022-12-07T16:59:44;9.40;67.60
30594;DHT22;33199;47.590;8.300;2022-12-07T17:02:10;9.50;67.60
30594;DHT22;33199;47.590;8.300;2022-12-07T17:04:36;9.40;67.60
30594;DHT22;33199;47.590;8.300;2022-12-07T17:07:05;9.50;67.60
30594;DHT22;33199;47.590;8.300;2022-12-07T17:09:30;9.50;67.70
30594;DHT22;33199;47.590;8.300;2022-12-07T17:11:56;9.40;67.70
30594;DHT22;33199;47.590;8.300;2022-12-07T17:14:21;9.40;67.60
30594;DHT22;33199;47.590;8.300;2022-12-07T17:17:05;9.50;67.70
30594;DHT22;33199;47.590;8.300;2022-12-07T17:19:31;9.40;67.60
30594;DHT22;33199;47.590;8.300;2022-12-07T17:21:56;9.40;67.60
30594;DHT22;33199;47.590;8.300;2022-12-07T17:24:22;9.40;67.60
30594;DHT22;33199;47.590;8.300;2022-12-07T17:26:47;9.40;67.50
30594;DHT22;33199;47.590;8.300;2022-12-07T17:29:14;9.40;67.50
30594;DHT22;33199;47.590;8.300;2022-12-07T17:31:40;9.40;67.50
30594;DHT22;33199;47.590;8.300;2022-12-07T17:34:10;9.40;67.60
30594;DHT22;33199;47.590;8.300;2022-12-07T17:36:35;9.40;67.60
30594;DHT22;33199;47.590;8.300;2022-12-07T17:39:01;9.40;67.50
30594;DHT22;33199;47.590;8.300;2022-12-07T17:41:28;9.40;67.50
30594;DHT22;33199;47.590;8.300;2022-12-07T17:44:13;9.40;67.50
30594;DHT22;33199;47.590;8.300;2022-12-07T17:46:39;9.40;67.50
30594;DHT22;33199;47.590;8.300;2022-12-07T17:49:05;9.40;67.50